sensor_id;sensor_type;location;lat;lon;timestamp;P1;durP1;ratioP1;P2;durP2;ratioP2
14358;SDS011;7263;49.418;11.064;2023-12-22T00:02:08;4.60;;;1.10;;
14358;SDS011;7263;49.418;11.064;2023-12-22T00:04:38;3.77;;;1.40;;
14358;SDS011;7263;49.418;11.064;2023-12-22T00:07:05;2.77;;;0.90;;
14358;SDS011;7263;49.418;11.064;2023-12-22T00:09:32;2.63;;;1.13;;
14358;SDS011;7263;49.418;11.064;2023-12-22T00:11:59;3.33;;;0.90;;
14358;SDS011;7263;49.418;11.064;2023-12-22T00:14:25;2.73;;;0.87;;
14358;SDS011;7263;49.418;11.064;2023-12-22T00:16:52;1.53;;;0.90;;
14358;SDS011;7263;49.418;11.064;2023-12-22T00:19:24;3.13;;;0.83;;
14358;SDS011;7263;49.418;11.064;2023-12-22T00:22:00;2.77;;;0.70;;
14358;SDS011;7263;49.418;11.064;2023-12-22T00:24:28;2.43;;;1.00;;
14358;SDS011;7263;49.418;11.064;2023-12-22T00:26:55;5.23;;;1.00;;
14358;SDS011;7263;49.418;11.064;2023-12-22T00:29:29;4.00;;;1.00;;
14358;SDS011;7263;49.418;11.064;2023-12-22T00:31:56;2.97;;;0.97;;
14358;SDS011;7263;49.418;11.064;2023-12-22T00:34:22;3.63;;;1.10;;
14358;SDS011;7263;49.418;11.064;2023-12-22T00:36:52;3.00;;;1.10;;
14358;SDS011;7263;49.418;11.064;2023-12-22T00:39:22;3.63;;;1.03;;
14358;SDS011;7263;49.418;11.064;2023-12-22T00:41:57;5.20;;;1.30;;
14358;SDS011;7263;49.418;11.064;2023-12-22T00:44:23;3.30;;;1.20;;
14358;SDS011;7263;49.418;11.064;2023-12-22T00:46:54;4.40;;;1.47;;
14358;SDS011;7263;49.418;11.064;2023-12-22T00:49:21;4.50;;;1.37;;
14358;SDS011;7263;49.418;11.064;2023-12-22T00:51:54;4.70;;;1.47;;
14358;SDS011;7263;49.418;11.064;2023-12-22T00:54:20;2.17;;;1.03;;
14358;SDS011;7263;49.418;11.064;2023-12-22T00:56:53;5.87;;;1.50;;
14358;SDS011;7263;49.418;11.064;2023-12-22T00:59:29;3.27;;;1.10;;
14358;SDS011;7263;49.418;11.064;2023-12-22T01:01:55;3.03;;;1.30;;
14358;SDS011;7263;49.418;11.064;2023-12-22T01:04:28;4.33;;;1.20;;
14358;SDS011;7263;49.418;11.064;2023-12-22T01:07:09;7.23;;;1.70;;
14358;SDS011;7263;49.418;11.064;2023-12-22T01:09:40;4.20;;;1.47;;
14358;SDS011;7263;49.418;11.064;2023-12-22T01:12:11;5.87;;;1.73;;
14358;SDS011;7263;49.418;11.064;2023-12-22T01:14:42;6.03;;;1.60;;
14358;SDS011;7263;49.418;11.064;2023-12-22T01:17:10;3.47;;;1.10;;
14358;SDS011;7263;49.418;11.064;2023-12-22T01:19:37;3.20;;;1.10;;
14358;SDS011;7263;49.418;11.064;2023-12-22T01:22:19;3.07;;;1.50;;
14358;SDS011;7263;49.418;11.064;2023-12-22T01:24:57;5.37;;;1.57;;
14358;SDS011;7263;49.418;11.064;2023-12-22T01:27:30;3.70;;;1.60;;
14358;SDS011;7263;49.418;11.064;2023-12-22T01:29:59;5.73;;;1.50;;
14358;SDS011;7263;49.418;11.064;2023-12-22T01:32:29;6.53;;;1.37;;
14358;SDS011;7263;49.418;11.064;2023-12-22T01:35:01;4.07;;;1.20;;
14358;SDS011;7263;49.418;11.064;2023-12-22T01:37:34;3.80;;;1.27;;
14358;SDS011;7263;49.418;11.064;2023-12-22T01:40:10;3.53;;;1.30;;
14358;SDS011;7263;49.418;11.064;2023-12-22T01:42:42;3.97;;;1.37;;
14358;SDS011;7263;49.418;11.064;2023-12-22T01:45:12;4.73;;;1.40;;
14358;SDS011;7263;49.418;11.064;2023-12-22T01:47:39;2.80;;;1.77;;
14358;SDS011;7263;49.418;11.064;2023-12-22T01:50:06;4.40;;;1.10;;
14358;SDS011;7263;49.418;11.064;2023-12-22T01:52:40;3.60;;;1.20;;
14358;SDS011;7263;49.418;11.064;2023-12-22T01:55:19;4.13;;;1.10;;
14358;SDS011;7263;49.418;11.064;2023-12-22T01:57:46;1.63;;;0.90;;
14358;SDS011;7263;49.418;11.064;2023-12-22T02:00:16;3.87;;;1.10;;
14358;SDS011;7263;49.418;11.064;2023-12-22T02:02:47;3.77;;;0.90;;
14358;SDS011;7263;49.418;11.064;2023-12-22T02:05:24;4.10;;;1.23;;
14358;SDS011;7263;49.418;11.064;2023-12-22T02:07:57;2.27;;;0.80;;
14358;SDS011;7263;49.418;11.064;2023-12-22T02:10:32;1.80;;;1.00;;
14358;SDS011;7263;49.418;11.064;2023-12-22T02:12:59;1.60;;;0.70;;
14358;SDS011;7263;49.418;11.064;2023-12-22T02:15:29;3.57;;;0.90;;
14358;SDS011;7263;49.418;11.064;2023-12-22T02:17:59;1.90;;;0.80;;
14358;SDS011;7263;49.418;11.064;2023-12-22T02:20:31;1.80;;;0.80;;
14358;SDS011;7263;49.418;11.064;2023-12-22T02:23:00;2.73;;;0.77;;
14358;SDS011;7263;49.418;11.064;2023-12-22T02:25:30;2.47;;;0.80;;
14358;SDS011;7263;49.418;11.064;2023-12-22T02:28:02;2.20;;;0.63;;
14358;SDS011;7263;49.418;11.064;2023-12-22T02:30:47;3.10;;;1.13;;
14358;SDS011;7263;49.418;11.064;2023-12-22T02:33:21;2.53;;;0.67;;
14358;SDS011;7263;49.418;11.064;2023-12-22T02:35:52;4.40;;;0.90;;
14358;SDS011;7263;49.418;11.064;2023-12-22T02:38:26;2.47;;;0.70;;
14358;SDS011;7263;49.418;11.064;2023-12-22T02:40:54;3.10;;;0.70;;
14358;SDS011;7263;49.418;11.064;2023-12-22T02:43:24;2.73;;;0.70;;
14358;SDS011;7263;49.418;11.064;2023-12-22T02:45:54;3.33;;;0.80;;
14358;SDS011;7263;49.418;11.064;2023-12-22T02:48:22;1.27;;;0.50;;
14358;SDS011;7263;49.418;11.064;2023-12-22T02:50:49;1.63;;;0.50;;
14358;SDS011;7263;49.418;11.064;2023-12-22T02:53:19;1.03;;;0.77;;
14358;SDS011;7263;49.418;11.064;2023-12-22T02:55:47;1.73;;;0.40;;
14358;SDS011;7263;49.418;11.064;2023-12-22T02:58:31;1.27;;;0.30;;
14358;SDS011;7263;49.418;11.064;2023-12-22T03:01:05;1.30;;;0.53;;
14358;SDS011;7263;49.418;11.064;2023-12-22T03:03:32;0.63;;;0.40;;
14358;SDS011;7263;49.418;11.064;2023-12-22T03:06:05;1.77;;;0.70;;
14358;SDS011;7263;49.418;11.064;2023-12-22T03:08:32;0.63;;;0.50;;
14358;SDS011;7263;49.418;11.064;2023-12-22T03:11:10;2.83;;;0.50;;
14358;SDS011;7263;49.418;11.064;2023-12-22T03:13:39;0.67;;;0.43;;
14358;SDS011;7263;49.418;11.064;2023-12-22T03:16:13;2.03;;;0.63;;
14358;SDS011;7263;49.418;11.064;2023-12-22T03:18:40;1.67;;;0.57;;
14358;SDS011;7263;49.418;11.064;2023-12-22T03:21:07;0.70;;;0.57;;
14358;SDS011;7263;49.418;11.064;2023-12-22T03:23:44;1.60;;;0.50;;
14358;SDS011;7263;49.418;11.064;2023-12-22T03:26:12;0.27;;;0.20;;
14358;SDS011;7263;49.418;11.064;2023-12-22T03:28:44;1.23;;;0.53;;
14358;SDS011;7263;49.418;11.064;2023-12-22T03:31:11;1.70;;;0.53;;
14358;SDS011;7263;49.418;11.064;2023-12-22T03:33:57;1.67;;;0.40;;
14358;SDS011;7263;49.418;11.064;2023-12-22T03:36:24;0.77;;;0.30;;
14358;SDS011;7263;49.418;11.064;2023-12-22T03:38:54;0.43;;;0.40;;
14358;SDS011;7263;49.418;11.064;2023-12-22T03:41:24;1.23;;;0.20;;
14358;SDS011;7263;49.418;11.064;2023-12-22T03:43:54;0.53;;;0.30;;
14358;SDS011;7263;49.418;11.064;2023-12-22T03:46:23;1.03;;;0.50;;
14358;SDS011;7263;49.418;11.064;2023-12-22T03:48:50;1.20;;;0.30;;
14358;SDS011;7263;49.418;11.064;2023-12-22T03:51:23;1.77;;;0.40;;
14358;SDS011;7263;49.418;11.064;2023-12-22T03:53:49;1.03;;;0.40;;
14358;SDS011;7263;49.418;11.064;2023-12-22T03:56:16;1.07;;;0.40;;
14358;SDS011;7263;49.418;11.064;2023-12-22T03:58:45;0.53;;;0.10;;
14358;SDS011;7263;49.418;11.064;2023-12-22T04:01:14;1.93;;;0.57;;
14358;SDS011;7263;49.418;11.064;2023-12-22T04:03:41;1.03;;;0.40;;
14358;SDS011;7263;49.418;11.064;2023-12-22T04:06:11;1.40;;;0.53;;
14358;SDS011;7263;49.418;11.064;2023-12-22T04:08:38;2.50;;;0.50;;
14358;SDS011;7263;49.418;11.064;2023-12-22T04:11:05;1.63;;;0.47;;
14358;SDS011;7263;49.418;11.064;2023-12-22T04:13:32;1.33;;;0.50;;
14358;SDS011;7263;49.418;11.064;2023-12-22T04:16:03;0.50;;;0.20;;
14358;SDS011;7263;49.418;11.064;2023-12-22T04:18:33;3.00;;;0.60;;
14358;SDS011;7263;49.418;11.064;2023-12-22T04:21:04;1.80;;;0.60;;
14358;SDS011;7263;49.418;11.064;2023-12-22T04:23:34;2.27;;;0.70;;
14358;SDS011;7263;49.418;11.064;2023-12-22T04:26:01;2.70;;;0.70;;
14358;SDS011;7263;49.418;11.064;2023-12-22T04:28:28;2.73;;;0.70;;
14358;SDS011;7263;49.418;11.064;2023-12-22T04:30:57;1.20;;;0.60;;
14358;SDS011;7263;49.418;11.064;2023-12-22T04:33:29;1.70;;;0.80;;
14358;SDS011;7263;49.418;11.064;2023-12-22T04:36:00;1.20;;;0.50;;
14358;SDS011;7263;49.418;11.064;2023-12-22T04:38:32;1.50;;;0.50;;
14358;SDS011;7263;49.418;11.064;2023-12-22T04:41:02;1.13;;;0.57;;
14358;SDS011;7263;49.418;11.064;2023-12-22T04:43:32;2.03;;;0.53;;
14358;SDS011;7263;49.418;11.064;2023-12-22T04:46:01;1.43;;;0.43;;
14358;SDS011;7263;49.418;11.064;2023-12-22T04:48:29;2.40;;;0.60;;
14358;SDS011;7263;49.418;11.064;2023-12-22T04:50:58;0.60;;;0.37;;
14358;SDS011;7263;49.418;11.064;2023-12-22T04:53:41;1.10;;;0.40;;
14358;SDS011;7263;49.418;11.064;2023-12-22T04:56:07;2.10;;;0.63;;
14358;SDS011;7263;49.418;11.064;2023-12-22T04:58:34;1.50;;;0.70;;
14358;SDS011;7263;49.418;11.064;2023-12-22T05:01:03;2.53;;;0.57;;
14358;SDS011;7263;49.418;11.064;2023-12-22T05:03:34;3.13;;;0.73;;
14358;SDS011;7263;49.418;11.064;2023-12-22T05:06:09;1.20;;;0.50;;
14358;SDS011;7263;49.418;11.064;2023-12-22T05:08:41;1.00;;;0.50;;
14358;SDS011;7263;49.418;11.064;2023-12-22T05:11:24;0.83;;;0.50;;
14358;SDS011;7263;49.418;11.064;2023-12-22T05:13:51;1.90;;;0.70;;
14358;SDS011;7263;49.418;11.064;2023-12-22T05:16:18;1.27;;;0.77;;
14358;SDS011;7263;49.418;11.064;2023-12-22T05:18:51;1.73;;;0.70;;
14358;SDS011;7263;49.418;11.064;2023-12-22T05:21:20;2.67;;;0.77;;
14358;SDS011;7263;49.418;11.064;2023-12-22T05:23:47;1.00;;;0.60;;
14358;SDS011;7263;49.418;11.064;2023-12-22T05:26:18;4.40;;;3.67;;
14358;SDS011;7263;49.418;11.064;2023-12-22T05:28:45;8.10;;;6.70;;
14358;SDS011;7263;49.418;11.064;2023-12-22T05:31:28;4.27;;;1.60;;
14358;SDS011;7263;49.418;11.064;2023-12-22T05:34:00;1.67;;;0.60;;
14358;SDS011;7263;49.418;11.064;2023-12-22T05:36:30;2.00;;;1.60;;
14358;SDS011;7263;49.418;11.064;2023-12-22T05:39:03;1.40;;;1.13;;
14358;SDS011;7263;49.418;11.064;2023-12-22T05:41:34;1.10;;;0.87;;
14358;SDS011;7263;49.418;11.064;2023-12-22T05:44:03;5.90;;;2.03;;
14358;SDS011;7263;49.418;11.064;2023-12-22T05:46:30;4.67;;;1.80;;
14358;SDS011;7263;49.418;11.064;2023-12-22T05:48:57;2.37;;;1.53;;
14358;SDS011;7263;49.418;11.064;2023-12-22T05:51:27;3.93;;;1.20;;
14358;SDS011;7263;49.418;11.064;2023-12-22T05:54:06;0.93;;;0.67;;
14358;SDS011;7263;49.418;11.064;2023-12-22T05:56:35;0.67;;;0.60;;
14358;SDS011;7263;49.418;11.064;2023-12-22T05:59:07;2.03;;;0.70;;
14358;SDS011;7263;49.418;11.064;2023-12-22T06:01:34;1.40;;;0.63;;
14358;SDS011;7263;49.418;11.064;2023-12-22T06:04:05;2.20;;;1.10;;
14358;SDS011;7263;49.418;11.064;2023-12-22T06:06:33;0.80;;;0.30;;
14358;SDS011;7263;49.418;11.064;2023-12-22T06:09:00;0.60;;;0.53;;
14358;SDS011;7263;49.418;11.064;2023-12-22T06:11:30;0.80;;;0.40;;
14358;SDS011;7263;49.418;11.064;2023-12-22T06:13:57;1.13;;;0.90;;
14358;SDS011;7263;49.418;11.064;2023-12-22T06:16:24;2.83;;;0.57;;
14358;SDS011;7263;49.418;11.064;2023-12-22T06:18:52;0.27;;;0.27;;
14358;SDS011;7263;49.418;11.064;2023-12-22T06:21:19;1.23;;;0.60;;
14358;SDS011;7263;49.418;11.064;2023-12-22T06:23:58;0.53;;;0.43;;
14358;SDS011;7263;49.418;11.064;2023-12-22T06:26:28;0.43;;;0.33;;
14358;SDS011;7263;49.418;11.064;2023-12-22T06:28:55;0.63;;;0.50;;
14358;SDS011;7263;49.418;11.064;2023-12-22T06:31:25;0.70;;;0.70;;
14358;SDS011;7263;49.418;11.064;2023-12-22T06:33:53;0.70;;;0.60;;
14358;SDS011;7263;49.418;11.064;2023-12-22T06:36:25;0.80;;;0.63;;
14358;SDS011;7263;49.418;11.064;2023-12-22T06:38:54;0.50;;;0.50;;
14358;SDS011;7263;49.418;11.064;2023-12-22T06:41:30;1.10;;;0.70;;
14358;SDS011;7263;49.418;11.064;2023-12-22T06:44:07;1.67;;;0.90;;
14358;SDS011;7263;49.418;11.064;2023-12-22T06:46:35;1.80;;;0.90;;
14358;SDS011;7263;49.418;11.064;2023-12-22T06:49:08;1.40;;;1.00;;
14358;SDS011;7263;49.418;11.064;2023-12-22T06:51:37;1.63;;;0.97;;
14358;SDS011;7263;49.418;11.064;2023-12-22T06:57:33;2.10;;;1.10;;
14358;SDS011;7263;49.418;11.064;2023-12-22T07:00:05;2.93;;;1.10;;
14358;SDS011;7263;49.418;11.064;2023-12-22T07:02:35;3.30;;;1.47;;
14358;SDS011;7263;49.418;11.064;2023-12-22T07:08:01;2.77;;;1.53;;
14358;SDS011;7263;49.418;11.064;2023-12-22T07:10:31;3.03;;;1.60;;
14358;SDS011;7263;49.418;11.064;2023-12-22T07:13:02;2.13;;;1.40;;
14358;SDS011;7263;49.418;11.064;2023-12-22T07:15:32;3.60;;;1.50;;
14358;SDS011;7263;49.418;11.064;2023-12-22T07:18:02;4.23;;;1.67;;
14358;SDS011;7263;49.418;11.064;2023-12-22T07:20:33;4.03;;;1.30;;
14358;SDS011;7263;49.418;11.064;2023-12-22T07:23:03;2.80;;;1.23;;
14358;SDS011;7263;49.418;11.064;2023-12-22T07:25:35;2.57;;;1.37;;
14358;SDS011;7263;49.418;11.064;2023-12-22T07:28:05;1.70;;;1.07;;
14358;SDS011;7263;49.418;11.064;2023-12-22T07:30:35;3.97;;;1.37;;
14358;SDS011;7263;49.418;11.064;2023-12-22T07:33:05;3.40;;;1.07;;
14358;SDS011;7263;49.418;11.064;2023-12-22T07:35:35;4.40;;;1.30;;
14358;SDS011;7263;49.418;11.064;2023-12-22T07:38:04;4.50;;;2.03;;
14358;SDS011;7263;49.418;11.064;2023-12-22T07:40:38;4.90;;;1.60;;
14358;SDS011;7263;49.418;11.064;2023-12-22T07:43:12;3.93;;;1.30;;
14358;SDS011;7263;49.418;11.064;2023-12-22T07:45:39;2.50;;;1.40;;
14358;SDS011;7263;49.418;11.064;2023-12-22T07:48:13;3.73;;;1.70;;
14358;SDS011;7263;49.418;11.064;2023-12-22T07:50:43;4.53;;;1.63;;
14358;SDS011;7263;49.418;11.064;2023-12-22T07:53:10;4.60;;;2.70;;
14358;SDS011;7263;49.418;11.064;2023-12-22T07:55:57;2.50;;;1.60;;
14358;SDS011;7263;49.418;11.064;2023-12-22T07:58:31;4.47;;;1.40;;
14358;SDS011;7263;49.418;11.064;2023-12-22T08:01:00;4.60;;;1.40;;
14358;SDS011;7263;49.418;11.064;2023-12-22T08:03:37;2.20;;;1.17;;
14358;SDS011;7263;49.418;11.064;2023-12-22T08:06:07;2.57;;;1.30;;
14358;SDS011;7263;49.418;11.064;2023-12-22T08:08:39;3.73;;;1.20;;
14358;SDS011;7263;49.418;11.064;2023-12-22T08:11:06;3.00;;;1.13;;
14358;SDS011;7263;49.418;11.064;2023-12-22T08:13:37;1.73;;;1.03;;
14358;SDS011;7263;49.418;11.064;2023-12-22T08:16:20;5.50;;;1.70;;
14358;SDS011;7263;49.418;11.064;2023-12-22T08:19:01;3.33;;;1.20;;
14358;SDS011;7263;49.418;11.064;2023-12-22T08:24:10;4.37;;;1.43;;
14358;SDS011;7263;49.418;11.064;2023-12-22T08:26:37;3.00;;;1.40;;
14358;SDS011;7263;49.418;11.064;2023-12-22T08:29:08;3.83;;;1.37;;
14358;SDS011;7263;49.418;11.064;2023-12-22T08:31:46;3.97;;;1.20;;
14358;SDS011;7263;49.418;11.064;2023-12-22T08:34:17;3.77;;;1.43;;
14358;SDS011;7263;49.418;11.064;2023-12-22T08:36:43;2.57;;;1.10;;
14358;SDS011;7263;49.418;11.064;2023-12-22T08:39:13;1.90;;;1.30;;
14358;SDS011;7263;49.418;11.064;2023-12-22T08:41:42;5.17;;;1.40;;
14358;SDS011;7263;49.418;11.064;2023-12-22T08:44:25;2.47;;;1.27;;
14358;SDS011;7263;49.418;11.064;2023-12-22T08:46:54;5.43;;;1.17;;
14358;SDS011;7263;49.418;11.064;2023-12-22T08:49:48;2.57;;;0.90;;
14358;SDS011;7263;49.418;11.064;2023-12-22T08:52:17;2.27;;;0.80;;
14358;SDS011;7263;49.418;11.064;2023-12-22T08:54:46;1.63;;;0.80;;
14358;SDS011;7263;49.418;11.064;2023-12-22T08:57:15;2.67;;;1.20;;
14358;SDS011;7263;49.418;11.064;2023-12-22T08:59:43;2.80;;;1.00;;
14358;SDS011;7263;49.418;11.064;2023-12-22T09:02:15;3.13;;;1.00;;
14358;SDS011;7263;49.418;11.064;2023-12-22T09:04:50;1.70;;;1.00;;
14358;SDS011;7263;49.418;11.064;2023-12-22T09:07:19;2.97;;;1.00;;
14358;SDS011;7263;49.418;11.064;2023-12-22T09:09:50;2.97;;;1.10;;
14358;SDS011;7263;49.418;11.064;2023-12-22T09:12:17;2.93;;;0.97;;
14358;SDS011;7263;49.418;11.064;2023-12-22T09:14:49;3.17;;;1.27;;
14358;SDS011;7263;49.418;11.064;2023-12-22T09:17:18;4.80;;;1.50;;
14358;SDS011;7263;49.418;11.064;2023-12-22T09:19:45;3.13;;;1.20;;
14358;SDS011;7263;49.418;11.064;2023-12-22T09:22:14;4.90;;;1.60;;
14358;SDS011;7263;49.418;11.064;2023-12-22T09:24:51;3.83;;;1.10;;
14358;SDS011;7263;49.418;11.064;2023-12-22T09:27:17;2.93;;;1.20;;
14358;SDS011;7263;49.418;11.064;2023-12-22T09:29:51;4.53;;;2.10;;
14358;SDS011;7263;49.418;11.064;2023-12-22T09:32:25;4.97;;;1.53;;
14358;SDS011;7263;49.418;11.064;2023-12-22T09:34:52;6.03;;;1.10;;
14358;SDS011;7263;49.418;11.064;2023-12-22T09:37:24;4.47;;;1.27;;
14358;SDS011;7263;49.418;11.064;2023-12-22T09:39:53;4.97;;;1.47;;
14358;SDS011;7263;49.418;11.064;2023-12-22T09:42:23;2.40;;;1.17;;
14358;SDS011;7263;49.418;11.064;2023-12-22T09:44:57;4.27;;;1.47;;
14358;SDS011;7263;49.418;11.064;2023-12-22T09:47:33;3.13;;;1.40;;
14358;SDS011;7263;49.418;11.064;2023-12-22T09:50:01;2.43;;;1.10;;
14358;SDS011;7263;49.418;11.064;2023-12-22T09:52:36;5.37;;;1.70;;
14358;SDS011;7263;49.418;11.064;2023-12-22T09:55:18;3.07;;;1.50;;
14358;SDS011;7263;49.418;11.064;2023-12-22T09:57:48;8.80;;;1.73;;
14358;SDS011;7263;49.418;11.064;2023-12-22T10:00:19;2.27;;;0.97;;
14358;SDS011;7263;49.418;11.064;2023-12-22T10:02:52;2.60;;;1.00;;
14358;SDS011;7263;49.418;11.064;2023-12-22T10:05:19;2.80;;;0.90;;
14358;SDS011;7263;49.418;11.064;2023-12-22T10:07:46;2.47;;;0.93;;
14358;SDS011;7263;49.418;11.064;2023-12-22T10:10:21;7.50;;;4.10;;
14358;SDS011;7263;49.418;11.064;2023-12-22T10:12:49;2.43;;;1.03;;
14358;SDS011;7263;49.418;11.064;2023-12-22T10:15:22;3.10;;;1.10;;
14358;SDS011;7263;49.418;11.064;2023-12-22T10:17:50;2.33;;;1.20;;
14358;SDS011;7263;49.418;11.064;2023-12-22T10:20:19;5.07;;;1.23;;
14358;SDS011;7263;49.418;11.064;2023-12-22T10:22:46;5.13;;;1.50;;
14358;SDS011;7263;49.418;11.064;2023-12-22T10:25:20;3.33;;;1.57;;
14358;SDS011;7263;49.418;11.064;2023-12-22T10:27:54;4.90;;;1.60;;
14358;SDS011;7263;49.418;11.064;2023-12-22T10:30:28;4.23;;;1.57;;
14358;SDS011;7263;49.418;11.064;2023-12-22T10:33:03;3.40;;;1.50;;
14358;SDS011;7263;49.418;11.064;2023-12-22T10:35:34;4.27;;;1.73;;
14358;SDS011;7263;49.418;11.064;2023-12-22T10:38:00;4.53;;;1.67;;
14358;SDS011;7263;49.418;11.064;2023-12-22T10:40:28;6.50;;;1.80;;
14358;SDS011;7263;49.418;11.064;2023-12-22T10:43:03;4.80;;;1.40;;
14358;SDS011;7263;49.418;11.064;2023-12-22T10:45:32;4.73;;;1.57;;
14358;SDS011;7263;49.418;11.064;2023-12-22T10:48:06;3.97;;;1.10;;
14358;SDS011;7263;49.418;11.064;2023-12-22T10:50:39;2.57;;;1.43;;
14358;SDS011;7263;49.418;11.064;2023-12-22T10:53:07;4.20;;;1.40;;
14358;SDS011;7263;49.418;11.064;2023-12-22T10:55:35;4.00;;;1.40;;
14358;SDS011;7263;49.418;11.064;2023-12-22T10:58:05;3.60;;;1.50;;
14358;SDS011;7263;49.418;11.064;2023-12-22T11:00:38;4.47;;;1.40;;
14358;SDS011;7263;49.418;11.064;2023-12-22T11:03:10;3.00;;;1.20;;
14358;SDS011;7263;49.418;11.064;2023-12-22T11:05:49;4.90;;;1.60;;
14358;SDS011;7263;49.418;11.064;2023-12-22T11:08:19;4.67;;;1.10;;
14358;SDS011;7263;49.418;11.064;2023-12-22T11:10:53;3.77;;;1.20;;
14358;SDS011;7263;49.418;11.064;2023-12-22T11:13:26;1.60;;;1.20;;
14358;SDS011;7263;49.418;11.064;2023-12-22T11:15:56;6.50;;;5.03;;
14358;SDS011;7263;49.418;11.064;2023-12-22T11:18:27;4.50;;;1.70;;
14358;SDS011;7263;49.418;11.064;2023-12-22T11:20:55;2.63;;;1.40;;
14358;SDS011;7263;49.418;11.064;2023-12-22T11:23:24;3.20;;;1.20;;
14358;SDS011;7263;49.418;11.064;2023-12-22T11:25:52;1.23;;;0.70;;
14358;SDS011;7263;49.418;11.064;2023-12-22T11:28:22;2.70;;;1.70;;
14358;SDS011;7263;49.418;11.064;2023-12-22T11:30:52;3.70;;;2.17;;
14358;SDS011;7263;49.418;11.064;2023-12-22T11:33:24;3.07;;;1.50;;
14358;SDS011;7263;49.418;11.064;2023-12-22T11:35:56;2.27;;;1.73;;
14358;SDS011;7263;49.418;11.064;2023-12-22T11:38:34;2.77;;;1.10;;
14358;SDS011;7263;49.418;11.064;2023-12-22T11:41:01;3.70;;;2.00;;
14358;SDS011;7263;49.418;11.064;2023-12-22T11:43:30;2.30;;;1.57;;
14358;SDS011;7263;49.418;11.064;2023-12-22T11:46:01;2.87;;;1.30;;
14358;SDS011;7263;49.418;11.064;2023-12-22T11:48:30;1.60;;;1.07;;
14358;SDS011;7263;49.418;11.064;2023-12-22T11:51:00;3.07;;;1.00;;
14358;SDS011;7263;49.418;11.064;2023-12-22T11:53:45;2.80;;;1.17;;
14358;SDS011;7263;49.418;11.064;2023-12-22T11:56:14;2.60;;;1.23;;
14358;SDS011;7263;49.418;11.064;2023-12-22T11:58:49;2.77;;;1.37;;
14358;SDS011;7263;49.418;11.064;2023-12-22T12:01:20;3.07;;;2.00;;
14358;SDS011;7263;49.418;11.064;2023-12-22T12:03:49;5.03;;;2.03;;
14358;SDS011;7263;49.418;11.064;2023-12-22T12:06:21;3.43;;;1.87;;
14358;SDS011;7263;49.418;11.064;2023-12-22T12:09:03;5.70;;;4.70;;
14358;SDS011;7263;49.418;11.064;2023-12-22T12:14:40;3.60;;;1.60;;
14358;SDS011;7263;49.418;11.064;2023-12-22T12:17:12;3.43;;;1.23;;
14358;SDS011;7263;49.418;11.064;2023-12-22T12:19:44;3.13;;;1.40;;
14358;SDS011;7263;49.418;11.064;2023-12-22T12:22:13;3.60;;;1.60;;
14358;SDS011;7263;49.418;11.064;2023-12-22T12:24:46;5.23;;;1.40;;
14358;SDS011;7263;49.418;11.064;2023-12-22T12:27:16;9.83;;;4.07;;
14358;SDS011;7263;49.418;11.064;2023-12-22T12:29:44;4.20;;;1.93;;
14358;SDS011;7263;49.418;11.064;2023-12-22T12:32:13;3.97;;;1.80;;
14358;SDS011;7263;49.418;11.064;2023-12-22T12:34:42;5.20;;;2.00;;
14358;SDS011;7263;49.418;11.064;2023-12-22T12:37:29;8.93;;;2.00;;
14358;SDS011;7263;49.418;11.064;2023-12-22T12:40:05;7.53;;;2.57;;
14358;SDS011;7263;49.418;11.064;2023-12-22T12:42:35;9.77;;;2.50;;
14358;SDS011;7263;49.418;11.064;2023-12-22T12:45:15;8.50;;;2.40;;
14358;SDS011;7263;49.418;11.064;2023-12-22T12:47:54;6.17;;;2.37;;
14358;SDS011;7263;49.418;11.064;2023-12-22T12:50:44;7.90;;;2.80;;
14358;SDS011;7263;49.418;11.064;2023-12-22T12:53:13;6.93;;;2.50;;
14358;SDS011;7263;49.418;11.064;2023-12-22T12:55:46;9.60;;;2.97;;
14358;SDS011;7263;49.418;11.064;2023-12-22T12:58:13;7.50;;;2.60;;
14358;SDS011;7263;49.418;11.064;2023-12-22T13:00:42;7.50;;;2.67;;
14358;SDS011;7263;49.418;11.064;2023-12-22T13:03:15;6.27;;;2.30;;
14358;SDS011;7263;49.418;11.064;2023-12-22T13:05:52;9.10;;;2.33;;
14358;SDS011;7263;49.418;11.064;2023-12-22T13:08:31;7.77;;;2.17;;
14358;SDS011;7263;49.418;11.064;2023-12-22T13:10:59;7.70;;;2.03;;
14358;SDS011;7263;49.418;11.064;2023-12-22T13:13:27;7.13;;;2.57;;
14358;SDS011;7263;49.418;11.064;2023-12-22T13:15:57;6.50;;;1.80;;
14358;SDS011;7263;49.418;11.064;2023-12-22T13:18:24;7.27;;;2.17;;
14358;SDS011;7263;49.418;11.064;2023-12-22T13:20:52;6.77;;;1.97;;
14358;SDS011;7263;49.418;11.064;2023-12-22T13:23:19;7.07;;;1.90;;
14358;SDS011;7263;49.418;11.064;2023-12-22T13:25:46;5.47;;;2.17;;
14358;SDS011;7263;49.418;11.064;2023-12-22T13:28:26;5.93;;;2.53;;
14358;SDS011;7263;49.418;11.064;2023-12-22T13:30:56;8.33;;;2.70;;
14358;SDS011;7263;49.418;11.064;2023-12-22T13:33:37;11.83;;;2.70;;
14358;SDS011;7263;49.418;11.064;2023-12-22T13:36:05;7.07;;;2.27;;
14358;SDS011;7263;49.418;11.064;2023-12-22T13:38:33;7.53;;;3.20;;
14358;SDS011;7263;49.418;11.064;2023-12-22T13:41:00;7.93;;;2.20;;
14358;SDS011;7263;49.418;11.064;2023-12-22T13:43:30;2.80;;;2.10;;
14358;SDS011;7263;49.418;11.064;2023-12-22T13:46:00;4.40;;;1.80;;
14358;SDS011;7263;49.418;11.064;2023-12-22T13:48:33;5.00;;;1.70;;
14358;SDS011;7263;49.418;11.064;2023-12-22T13:51:14;5.83;;;1.83;;
14358;SDS011;7263;49.418;11.064;2023-12-22T13:53:52;5.10;;;1.90;;
14358;SDS011;7263;49.418;11.064;2023-12-22T13:56:19;4.00;;;2.10;;
14358;SDS011;7263;49.418;11.064;2023-12-22T13:58:51;3.23;;;1.33;;
14358;SDS011;7263;49.418;11.064;2023-12-22T14:01:18;2.93;;;1.30;;
14358;SDS011;7263;49.418;11.064;2023-12-22T14:03:52;4.20;;;1.60;;
14358;SDS011;7263;49.418;11.064;2023-12-22T14:06:22;2.73;;;1.50;;
14358;SDS011;7263;49.418;11.064;2023-12-22T14:08:49;2.60;;;1.70;;
14358;SDS011;7263;49.418;11.064;2023-12-22T14:11:16;3.93;;;1.53;;
14358;SDS011;7263;49.418;11.064;2023-12-22T14:13:45;3.40;;;1.60;;
14358;SDS011;7263;49.418;11.064;2023-12-22T14:16:17;4.07;;;1.73;;
14358;SDS011;7263;49.418;11.064;2023-12-22T14:18:48;4.17;;;1.30;;
14358;SDS011;7263;49.418;11.064;2023-12-22T14:21:20;4.20;;;1.80;;
14358;SDS011;7263;49.418;11.064;2023-12-22T14:23:48;1.97;;;1.20;;
14358;SDS011;7263;49.418;11.064;2023-12-22T14:26:15;2.77;;;1.23;;
14358;SDS011;7263;49.418;11.064;2023-12-22T14:28:42;3.13;;;1.40;;
14358;SDS011;7263;49.418;11.064;2023-12-22T14:31:12;4.43;;;1.20;;
14358;SDS011;7263;49.418;11.064;2023-12-22T14:33:41;3.53;;;1.00;;
14358;SDS011;7263;49.418;11.064;2023-12-22T14:36:14;1.00;;;0.80;;
14358;SDS011;7263;49.418;11.064;2023-12-22T14:38:42;3.20;;;0.90;;
14358;SDS011;7263;49.418;11.064;2023-12-22T14:41:13;1.33;;;0.80;;
14358;SDS011;7263;49.418;11.064;2023-12-22T14:43:45;1.30;;;1.00;;
14358;SDS011;7263;49.418;11.064;2023-12-22T14:46:27;1.10;;;0.60;;
14358;SDS011;7263;49.418;11.064;2023-12-22T14:48:56;2.43;;;0.70;;
14358;SDS011;7263;49.418;11.064;2023-12-22T14:51:23;2.30;;;0.73;;
14358;SDS011;7263;49.418;11.064;2023-12-22T14:53:50;1.30;;;0.60;;
14358;SDS011;7263;49.418;11.064;2023-12-22T14:56:21;4.10;;;1.70;;
14358;SDS011;7263;49.418;11.064;2023-12-22T14:58:54;3.50;;;1.20;;
14358;SDS011;7263;49.418;11.064;2023-12-22T15:01:21;5.00;;;2.60;;
14358;SDS011;7263;49.418;11.064;2023-12-22T15:03:50;2.17;;;1.30;;
14358;SDS011;7263;49.418;11.064;2023-12-22T15:06:17;4.50;;;1.77;;
14358;SDS011;7263;49.418;11.064;2023-12-22T15:08:54;4.23;;;2.23;;
14358;SDS011;7263;49.418;11.064;2023-12-22T15:11:28;1.97;;;1.60;;
14358;SDS011;7263;49.418;11.064;2023-12-22T15:13:54;1.27;;;0.80;;
14358;SDS011;7263;49.418;11.064;2023-12-22T15:16:21;2.03;;;0.93;;
14358;SDS011;7263;49.418;11.064;2023-12-22T15:18:48;1.53;;;0.97;;
14358;SDS011;7263;49.418;11.064;2023-12-22T15:21:26;0.93;;;0.77;;
14358;SDS011;7263;49.418;11.064;2023-12-22T15:23:52;0.63;;;0.50;;